sensor_id;sensor_type;location;lat;lon;timestamp;temperature;humidity
15844;DHT22;50807;52.436;13.346;2023-07-13T00:00:24;24.50;55.90
15844;DHT22;50807;52.436;13.346;2023-07-13T00:00:55;24.50;55.90
15844;DHT22;50807;52.436;13.346;2023-07-13T00:01:28;24.50;56.00
15844;DHT22;50807;52.436;13.346;2023-07-13T00:01:59;24.50;56.00
15844;DHT22;50807;52.436;13.346;2023-07-13T00:02:30;24.50;56.00
15844;DHT22;50807;52.436;13.346;2023-07-13T00:03:00;24.50;56.00
15844;DHT22;50807;52.436;13.346;2023-07-13T00:03:32;24.50;56.10
15844;DHT22;50807;52.436;13.346;2023-07-13T00:04:05;24.50;56.10
15844;DHT22;50807;52.436;13.346;2023-07-13T00:04:36;24.50;56.10
15844;DHT22;50807;52.436;13.346;2023-07-13T00:05:08;24.50;56.20
15844;DHT22;50807;52.436;13.346;2023-07-13T00:05:39;24.40;56.10
15844;DHT22;50807;52.436;13.346;2023-07-13T00:06:10;24.50;56.20
15844;DHT22;50807;52.436;13.346;2023-07-13T00:06:41;24.40;56.10
15844;DHT22;50807;52.436;13.346;2023-07-13T00:07:15;24.40;56.20
15844;DHT22;50807;52.436;13.346;2023-07-13T00:07:45;24.40;56.20
15844;DHT22;50807;52.436;13.346;2023-07-13T00:08:16;24.40;56.20
15844;DHT22;50807;52.436;13.346;2023-07-13T00:08:48;24.40;56.30
15844;DHT22;50807;52.436;13.346;2023-07-13T00:09:20;24.40;56.30
15844;DHT22;50807;52.436;13.346;2023-07-13T00:09:52;24.40;56.30
15844;DHT22;50807;52.436;13.346;2023-07-13T00:10:23;24.30;56.20
15844;DHT22;50807;52.436;13.346;2023-07-13T00:10:54;24.30;56.30
15844;DHT22;50807;52.436;13.346;2023-07-13T00:11:25;24.30;56.30
15844;DHT22;50807;52.436;13.346;2023-07-13T00:11:57;24.30;56.30
15844;DHT22;50807;52.436;13.346;2023-07-13T00:12:30;24.40;56.50
15844;DHT22;50807;52.436;13.346;2023-07-13T00:13:04;24.30;56.40
15844;DHT22;50807;52.436;13.346;2023-07-13T00:13:35;24.30;56.40
15844;DHT22;50807;52.436;13.346;2023-07-13T00:14:09;24.30;56.40
15844;DHT22;50807;52.436;13.346;2023-07-13T00:14:41;24.30;56.50
15844;DHT22;50807;52.436;13.346;2023-07-13T00:15:14;24.30;56.50
15844;DHT22;50807;52.436;13.346;2023-07-13T00:15:47;24.30;56.50
15844;DHT22;50807;52.436;13.346;2023-07-13T00:16:18;24.30;56.50
15844;DHT22;50807;52.436;13.346;2023-07-13T00:16:49;24.30;57.10
15844;DHT22;50807;52.436;13.346;2023-07-13T00:17:20;24.30;56.60
15844;DHT22;50807;52.436;13.346;2023-07-13T00:17:52;24.30;56.70
15844;DHT22;50807;52.436;13.346;2023-07-13T00:18:24;24.30;56.70
15844;DHT22;50807;52.436;13.346;2023-07-13T00:18:55;24.20;56.70
15844;DHT22;50807;52.436;13.346;2023-07-13T00:19:26;24.20;56.70
15844;DHT22;50807;52.436;13.346;2023-07-13T00:19:57;24.20;56.80
15844;DHT22;50807;52.436;13.346;2023-07-13T00:20:29;24.20;56.80
15844;DHT22;50807;52.436;13.346;2023-07-13T00:20:59;24.20;56.80
15844;DHT22;50807;52.436;13.346;2023-07-13T00:21:35;24.20;56.90
15844;DHT22;50807;52.436;13.346;2023-07-13T00:22:06;24.20;56.90
15844;DHT22;50807;52.436;13.346;2023-07-13T00:22:37;24.20;56.90
15844;DHT22;50807;52.436;13.346;2023-07-13T00:23:08;24.20;56.90
15844;DHT22;50807;52.436;13.346;2023-07-13T00:23:40;24.20;57.00
15844;DHT22;50807;52.436;13.346;2023-07-13T00:24:14;24.20;57.00
15844;DHT22;50807;52.436;13.346;2023-07-13T00:24:48;24.20;57.10
15844;DHT22;50807;52.436;13.346;2023-07-13T00:25:19;24.20;57.00
15844;DHT22;50807;52.436;13.346;2023-07-13T00:25:50;24.10;57.00
15844;DHT22;50807;52.436;13.346;2023-07-13T00:26:22;24.20;57.10
15844;DHT22;50807;52.436;13.346;2023-07-13T00:26:53;24.10;57.10
15844;DHT22;50807;52.436;13.346;2023-07-13T00:27:25;24.10;57.10
15844;DHT22;50807;52.436;13.346;2023-07-13T00:27:56;24.10;57.20
15844;DHT22;50807;52.436;13.346;2023-07-13T00:28:29;24.10;57.20
15844;DHT22;50807;52.436;13.346;2023-07-13T00:29:00;24.10;57.20
15844;DHT22;50807;52.436;13.346;2023-07-13T00:29:31;24.10;57.30
15844;DHT22;50807;52.436;13.346;2023-07-13T00:30:05;24.10;57.30
15844;DHT22;50807;52.436;13.346;2023-07-13T00:30:39;24.10;57.40
15844;DHT22;50807;52.436;13.346;2023-07-13T00:31:11;24.10;57.40
15844;DHT22;50807;52.436;13.346;2023-07-13T00:31:44;24.10;57.40
15844;DHT22;50807;52.436;13.346;2023-07-13T00:32:16;24.10;57.40
15844;DHT22;50807;52.436;13.346;2023-07-13T00:32:47;24.10;57.50
15844;DHT22;50807;52.436;13.346;2023-07-13T00:33:18;24.10;57.50
15844;DHT22;50807;52.436;13.346;2023-07-13T00:33:48;24.10;57.50
15844;DHT22;50807;52.436;13.346;2023-07-13T00:34:20;24.10;57.60
15844;DHT22;50807;52.436;13.346;2023-07-13T00:34:51;24.10;57.60
15844;DHT22;50807;52.436;13.346;2023-07-13T00:35:21;24.00;57.60
15844;DHT22;50807;52.436;13.346;2023-07-13T00:35:54;24.00;57.60
15844;DHT22;50807;52.436;13.346;2023-07-13T00:36:26;24.00;57.70
15844;DHT22;50807;52.436;13.346;2023-07-13T00:36:56;24.00;57.70
15844;DHT22;50807;52.436;13.346;2023-07-13T00:37:27;24.00;57.70
15844;DHT22;50807;52.436;13.346;2023-07-13T00:37:58;24.00;57.80
15844;DHT22;50807;52.436;13.346;2023-07-13T00:38:30;24.00;57.80
15844;DHT22;50807;52.436;13.346;2023-07-13T00:39:02;24.00;57.80
15844;DHT22;50807;52.436;13.346;2023-07-13T00:39:34;24.00;57.90
15844;DHT22;50807;52.436;13.346;2023-07-13T00:40:08;24.00;57.90
15844;DHT22;50807;52.436;13.346;2023-07-13T00:40:40;24.00;57.90
15844;DHT22;50807;52.436;13.346;2023-07-13T00:41:12;24.00;57.90
15844;DHT22;50807;52.436;13.346;2023-07-13T00:41:42;24.00;58.00
15844;DHT22;50807;52.436;13.346;2023-07-13T00:42:15;24.00;58.00
15844;DHT22;50807;52.436;13.346;2023-07-13T00:42:45;24.00;58.00
15844;DHT22;50807;52.436;13.346;2023-07-13T00:43:18;24.00;58.00
15844;DHT22;50807;52.436;13.346;2023-07-13T00:43:52;23.90;58.10
15844;DHT22;50807;52.436;13.346;2023-07-13T00:44:24;23.90;58.10
15844;DHT22;50807;52.436;13.346;2023-07-13T00:45:05;24.00;58.20
15844;DHT22;50807;52.436;13.346;2023-07-13T00:46:30;23.90;58.20
15844;DHT22;50807;52.436;13.346;2023-07-13T00:47:03;24.00;58.20
15844;DHT22;50807;52.436;13.346;2023-07-13T00:47:33;23.90;58.00
15844;DHT22;50807;52.436;13.346;2023-07-13T00:48:05;23.90;58.10
15844;DHT22;50807;52.436;13.346;2023-07-13T00:48:36;23.90;58.20
15844;DHT22;50807;52.436;13.346;2023-07-13T00:49:12;23.90;58.20
15844;DHT22;50807;52.436;13.346;2023-07-13T00:49:46;23.90;58.30
15844;DHT22;50807;52.436;13.346;2023-07-13T00:50:18;23.90;58.30
15844;DHT22;50807;52.436;13.346;2023-07-13T00:50:53;23.90;58.40
15844;DHT22;50807;52.436;13.346;2023-07-13T00:51:31;23.90;58.40
15844;DHT22;50807;52.436;13.346;2023-07-13T00:52:07;23.90;58.50
15844;DHT22;50807;52.436;13.346;2023-07-13T00:52:41;23.90;58.50
15844;DHT22;50807;52.436;13.346;2023-07-13T00:53:15;23.90;58.60
15844;DHT22;50807;52.436;13.346;2023-07-13T00:53:46;23.90;58.60
15844;DHT22;50807;52.436;13.346;2023-07-13T00:54:25;23.80;58.60
15844;DHT22;50807;52.436;13.346;2023-07-13T00:54:59;23.80;58.80
15844;DHT22;50807;52.436;13.346;2023-07-13T00:55:30;23.80;58.70
15844;DHT22;50807;52.436;13.346;2023-07-13T00:56:01;23.80;59.40
15844;DHT22;50807;52.436;13.346;2023-07-13T00:56:34;23.80;58.80
15844;DHT22;50807;52.436;13.346;2023-07-13T00:57:09;23.80;58.90
15844;DHT22;50807;52.436;13.346;2023-07-13T00:57:43;23.70;58.90
15844;DHT22;50807;52.436;13.346;2023-07-13T00:58:15;23.80;59.00
15844;DHT22;50807;52.436;13.346;2023-07-13T00:58:47;23.80;59.00
15844;DHT22;50807;52.436;13.346;2023-07-13T00:59:18;23.70;59.00
15844;DHT22;50807;52.436;13.346;2023-07-13T00:59:53;23.70;59.10
15844;DHT22;50807;52.436;13.346;2023-07-13T01:00:29;23.70;59.20
15844;DHT22;50807;52.436;13.346;2023-07-13T01:01:01;23.70;59.30
15844;DHT22;50807;52.436;13.346;2023-07-13T01:01:33;23.70;59.40
15844;DHT22;50807;52.436;13.346;2023-07-13T01:02:04;23.70;59.40
15844;DHT22;50807;52.436;13.346;2023-07-13T01:02:38;23.70;59.40
15844;DHT22;50807;52.436;13.346;2023-07-13T01:03:12;23.70;59.60
15844;DHT22;50807;52.436;13.346;2023-07-13T01:03:43;23.70;59.60
15844;DHT22;50807;52.436;13.346;2023-07-13T01:04:14;23.70;59.70
15844;DHT22;50807;52.436;13.346;2023-07-13T01:04:46;23.70;59.70
15844;DHT22;50807;52.436;13.346;2023-07-13T01:05:19;23.60;59.70
15844;DHT22;50807;52.436;13.346;2023-07-13T01:05:51;23.60;59.80
15844;DHT22;50807;52.436;13.346;2023-07-13T01:06:24;23.60;59.80
15844;DHT22;50807;52.436;13.346;2023-07-13T01:06:57;23.60;59.90
15844;DHT22;50807;52.436;13.346;2023-07-13T01:07:28;23.60;60.70
15844;DHT22;50807;52.436;13.346;2023-07-13T01:08:00;23.60;60.00
15844;DHT22;50807;52.436;13.346;2023-07-13T01:08:31;23.50;60.10
15844;DHT22;50807;52.436;13.346;2023-07-13T01:09:04;23.50;60.10
15844;DHT22;50807;52.436;13.346;2023-07-13T01:09:38;23.50;60.10
15844;DHT22;50807;52.436;13.346;2023-07-13T01:10:09;23.50;60.10
15844;DHT22;50807;52.436;13.346;2023-07-13T01:10:41;23.50;60.30
15844;DHT22;50807;52.436;13.346;2023-07-13T01:11:21;23.50;60.40
15844;DHT22;50807;52.436;13.346;2023-07-13T01:11:52;23.50;60.40
15844;DHT22;50807;52.436;13.346;2023-07-13T01:12:24;23.50;60.40
15844;DHT22;50807;52.436;13.346;2023-07-13T01:12:55;23.40;60.40
15844;DHT22;50807;52.436;13.346;2023-07-13T01:13:26;23.40;60.60
15844;DHT22;50807;52.436;13.346;2023-07-13T01:13:56;23.40;60.60
15844;DHT22;50807;52.436;13.346;2023-07-13T01:14:28;23.40;60.70
15844;DHT22;50807;52.436;13.346;2023-07-13T01:14:59;23.40;60.90
15844;DHT22;50807;52.436;13.346;2023-07-13T01:15:37;23.40;60.90
15844;DHT22;50807;52.436;13.346;2023-07-13T01:16:15;23.30;61.00
15844;DHT22;50807;52.436;13.346;2023-07-13T01:16:55;23.30;61.00
15844;DHT22;50807;52.436;13.346;2023-07-13T01:17:31;23.30;61.00
15844;DHT22;50807;52.436;13.346;2023-07-13T01:18:05;23.30;61.00
15844;DHT22;50807;52.436;13.346;2023-07-13T01:18:37;23.30;61.10
15844;DHT22;50807;52.436;13.346;2023-07-13T01:19:16;23.30;61.20
15844;DHT22;50807;52.436;13.346;2023-07-13T01:19:55;23.20;61.30
15844;DHT22;50807;52.436;13.346;2023-07-13T01:20:26;23.20;61.30
15844;DHT22;50807;52.436;13.346;2023-07-13T01:21:00;23.20;61.30
15844;DHT22;50807;52.436;13.346;2023-07-13T01:21:33;23.20;61.50
15844;DHT22;50807;52.436;13.346;2023-07-13T01:22:05;23.20;61.50
15844;DHT22;50807;52.436;13.346;2023-07-13T01:22:38;23.20;61.70
15844;DHT22;50807;52.436;13.346;2023-07-13T01:23:11;23.20;61.70
15844;DHT22;50807;52.436;13.346;2023-07-13T01:23:43;23.20;61.90
15844;DHT22;50807;52.436;13.346;2023-07-13T01:24:14;23.20;61.90
15844;DHT22;50807;52.436;13.346;2023-07-13T01:24:47;23.10;62.00
15844;DHT22;50807;52.436;13.346;2023-07-13T01:25:20;23.10;62.10
15844;DHT22;50807;52.436;13.346;2023-07-13T01:25:52;23.10;62.10
15844;DHT22;50807;52.436;13.346;2023-07-13T01:26:25;23.10;62.30
15844;DHT22;50807;52.436;13.346;2023-07-13T01:26:57;23.10;62.30
15844;DHT22;50807;52.436;13.346;2023-07-13T01:27:28;23.10;62.40
15844;DHT22;50807;52.436;13.346;2023-07-13T01:27:59;23.10;62.50
15844;DHT22;50807;52.436;13.346;2023-07-13T01:28:30;23.10;62.60
15844;DHT22;50807;52.436;13.346;2023-07-13T01:29:01;23.10;62.60
15844;DHT22;50807;52.436;13.346;2023-07-13T01:29:34;23.10;62.80
15844;DHT22;50807;52.436;13.346;2023-07-13T01:30:12;23.00;62.80
15844;DHT22;50807;52.436;13.346;2023-07-13T01:30:44;23.10;62.90
15844;DHT22;50807;52.436;13.346;2023-07-13T01:31:16;23.10;62.90
15844;DHT22;50807;52.436;13.346;2023-07-13T01:31:46;23.10;63.00
15844;DHT22;50807;52.436;13.346;2023-07-13T01:32:20;23.10;63.10
15844;DHT22;50807;52.436;13.346;2023-07-13T01:32:54;23.10;63.20
15844;DHT22;50807;52.436;13.346;2023-07-13T01:33:25;23.00;63.20
15844;DHT22;50807;52.436;13.346;2023-07-13T01:33:56;23.00;63.20
15844;DHT22;50807;52.436;13.346;2023-07-13T01:34:28;23.00;63.30
15844;DHT22;50807;52.436;13.346;2023-07-13T01:34:59;23.00;63.30
15844;DHT22;50807;52.436;13.346;2023-07-13T01:35:30;23.00;64.20
15844;DHT22;50807;52.436;13.346;2023-07-13T01:36:02;23.00;63.60
15844;DHT22;50807;52.436;13.346;2023-07-13T01:36:34;23.00;63.60
15844;DHT22;50807;52.436;13.346;2023-07-13T01:37:05;23.00;63.60
15844;DHT22;50807;52.436;13.346;2023-07-13T01:37:36;23.00;63.70
15844;DHT22;50807;52.436;13.346;2023-07-13T01:38:07;23.00;63.80
15844;DHT22;50807;52.436;13.346;2023-07-13T01:38:38;23.00;63.90
15844;DHT22;50807;52.436;13.346;2023-07-13T01:39:10;23.00;63.90
15844;DHT22;50807;52.436;13.346;2023-07-13T01:39:41;23.00;64.00
15844;DHT22;50807;52.436;13.346;2023-07-13T01:40:13;23.00;64.10
15844;DHT22;50807;52.436;13.346;2023-07-13T01:40:43;23.00;64.20
15844;DHT22;50807;52.436;13.346;2023-07-13T01:41:15;23.00;64.20
15844;DHT22;50807;52.436;13.346;2023-07-13T01:41:46;23.00;64.20
15844;DHT22;50807;52.436;13.346;2023-07-13T01:42:17;22.90;64.20
15844;DHT22;50807;52.436;13.346;2023-07-13T01:42:47;22.90;64.20
15844;DHT22;50807;52.436;13.346;2023-07-13T01:43:19;22.90;64.40
15844;DHT22;50807;52.436;13.346;2023-07-13T01:43:50;22.90;64.50
15844;DHT22;50807;52.436;13.346;2023-07-13T01:44:21;23.00;64.60
15844;DHT22;50807;52.436;13.346;2023-07-13T01:44:51;23.00;64.60
15844;DHT22;50807;52.436;13.346;2023-07-13T01:45:23;22.90;64.70
15844;DHT22;50807;52.436;13.346;2023-07-13T01:45:54;22.90;64.70
15844;DHT22;50807;52.436;13.346;2023-07-13T01:46:25;22.90;64.80
15844;DHT22;50807;52.436;13.346;2023-07-13T01:46:57;22.90;64.80
15844;DHT22;50807;52.436;13.346;2023-07-13T01:47:28;22.90;64.80
15844;DHT22;50807;52.436;13.346;2023-07-13T01:48:01;22.90;64.80
15844;DHT22;50807;52.436;13.346;2023-07-13T01:48:31;22.90;64.90
15844;DHT22;50807;52.436;13.346;2023-07-13T01:49:03;22.90;65.00
15844;DHT22;50807;52.436;13.346;2023-07-13T01:49:34;22.90;65.00
15844;DHT22;50807;52.436;13.346;2023-07-13T01:50:05;22.90;65.00
15844;DHT22;50807;52.436;13.346;2023-07-13T01:50:36;22.90;65.10
15844;DHT22;50807;52.436;13.346;2023-07-13T01:51:10;22.90;65.20
15844;DHT22;50807;52.436;13.346;2023-07-13T01:51:41;22.90;65.30
15844;DHT22;50807;52.436;13.346;2023-07-13T01:52:12;22.90;65.30
15844;DHT22;50807;52.436;13.346;2023-07-13T01:52:42;22.90;65.40
15844;DHT22;50807;52.436;13.346;2023-07-13T01:53:14;22.90;65.40
15844;DHT22;50807;52.436;13.346;2023-07-13T01:53:45;22.90;65.50
15844;DHT22;50807;52.436;13.346;2023-07-13T01:54:16;22.90;65.60
15844;DHT22;50807;52.436;13.346;2023-07-13T01:54:47;22.90;65.60
15844;DHT22;50807;52.436;13.346;2023-07-13T01:55:19;22.90;65.60
15844;DHT22;50807;52.436;13.346;2023-07-13T01:55:50;22.90;65.70
15844;DHT22;50807;52.436;13.346;2023-07-13T01:56:21;22.90;65.70
15844;DHT22;50807;52.436;13.346;2023-07-13T01:56:53;22.90;65.80
15844;DHT22;50807;52.436;13.346;2023-07-13T01:57:23;22.90;65.90
15844;DHT22;50807;52.436;13.346;2023-07-13T01:57:54;22.90;65.90
15844;DHT22;50807;52.436;13.346;2023-07-13T01:58:25;22.90;65.90
15844;DHT22;50807;52.436;13.346;2023-07-13T01:58:57;22.90;66.10
15844;DHT22;50807;52.436;13.346;2023-07-13T01:59:28;22.80;66.00
15844;DHT22;50807;52.436;13.346;2023-07-13T01:59:59;22.80;66.00
15844;DHT22;50807;52.436;13.346;2023-07-13T02:00:31;22.90;66.10
15844;DHT22;50807;52.436;13.346;2023-07-13T02:01:03;22.90;66.20
15844;DHT22;50807;52.436;13.346;2023-07-13T02:01:34;22.80;66.20
15844;DHT22;50807;52.436;13.346;2023-07-13T02:02:06;22.80;66.20
15844;DHT22;50807;52.436;13.346;2023-07-13T02:02:37;22.80;66.20
15844;DHT22;50807;52.436;13.346;2023-07-13T02:03:07;22.80;66.30
15844;DHT22;50807;52.436;13.346;2023-07-13T02:03:39;22.80;66.30
15844;DHT22;50807;52.436;13.346;2023-07-13T02:04:10;22.80;66.40
15844;DHT22;50807;52.436;13.346;2023-07-13T02:04:41;22.80;66.50
15844;DHT22;50807;52.436;13.346;2023-07-13T02:05:12;22.80;66.50
15844;DHT22;50807;52.436;13.346;2023-07-13T02:05:44;22.80;66.60
15844;DHT22;50807;52.436;13.346;2023-07-13T02:06:17;22.80;66.70
15844;DHT22;50807;52.436;13.346;2023-07-13T02:06:47;22.80;66.80
15844;DHT22;50807;52.436;13.346;2023-07-13T02:07:18;22.80;66.80
15844;DHT22;50807;52.436;13.346;2023-07-13T02:07:50;22.80;66.80
15844;DHT22;50807;52.436;13.346;2023-07-13T02:08:21;22.80;66.90
15844;DHT22;50807;52.436;13.346;2023-07-13T02:08:51;22.80;66.90
15844;DHT22;50807;52.436;13.346;2023-07-13T02:09:22;22.80;67.00
15844;DHT22;50807;52.436;13.346;2023-07-13T02:09:54;22.80;67.10
15844;DHT22;50807;52.436;13.346;2023-07-13T02:10:25;22.80;67.10
15844;DHT22;50807;52.436;13.346;2023-07-13T02:10:55;22.80;67.20
15844;DHT22;50807;52.436;13.346;2023-07-13T02:11:26;22.70;67.20
15844;DHT22;50807;52.436;13.346;2023-07-13T02:12:03;22.70;67.30
15844;DHT22;50807;52.436;13.346;2023-07-13T02:12:35;22.70;67.30
15844;DHT22;50807;52.436;13.346;2023-07-13T02:13:07;22.70;67.40
15844;DHT22;50807;52.436;13.346;2023-07-13T02:13:38;22.70;67.50
15844;DHT22;50807;52.436;13.346;2023-07-13T02:14:09;22.70;67.50
15844;DHT22;50807;52.436;13.346;2023-07-13T02:14:40;22.70;67.50
15844;DHT22;50807;52.436;13.346;2023-07-13T02:15:11;22.70;67.60
15844;DHT22;50807;52.436;13.346;2023-07-13T02:15:43;22.60;67.60
15844;DHT22;50807;52.436;13.346;2023-07-13T02:16:13;22.60;67.60
15844;DHT22;50807;52.436;13.346;2023-07-13T02:16:44;22.70;67.80
15844;DHT22;50807;52.436;13.346;2023-07-13T02:17:15;22.60;67.80
15844;DHT22;50807;52.436;13.346;2023-07-13T02:17:46;22.60;67.80
15844;DHT22;50807;52.436;13.346;2023-07-13T02:18:18;22.60;67.90
15844;DHT22;50807;52.436;13.346;2023-07-13T02:18:48;22.70;68.00
15844;DHT22;50807;52.436;13.346;2023-07-13T02:19:22;22.60;68.00
15844;DHT22;50807;52.436;13.346;2023-07-13T02:19:54;22.60;68.10
15844;DHT22;50807;52.436;13.346;2023-07-13T02:20:25;22.60;68.10
15844;DHT22;50807;52.436;13.346;2023-07-13T02:20:56;22.60;68.20
15844;DHT22;50807;52.436;13.346;2023-07-13T02:21:28;22.60;68.20
15844;DHT22;50807;52.436;13.346;2023-07-13T02:22:00;22.60;68.30
15844;DHT22;50807;52.436;13.346;2023-07-13T02:22:31;22.60;68.40
15844;DHT22;50807;52.436;13.346;2023-07-13T02:23:02;22.60;68.40
15844;DHT22;50807;52.436;13.346;2023-07-13T02:23:33;22.60;68.50
15844;DHT22;50807;52.436;13.346;2023-07-13T02:24:05;22.60;68.50
15844;DHT22;50807;52.436;13.346;2023-07-13T02:24:36;22.60;68.60
15844;DHT22;50807;52.436;13.346;2023-07-13T02:25:08;22.60;68.70
15844;DHT22;50807;52.436;13.346;2023-07-13T02:25:39;22.60;68.70
15844;DHT22;50807;52.436;13.346;2023-07-13T02:26:11;22.50;68.60
15844;DHT22;50807;52.436;13.346;2023-07-13T02:26:42;22.50;68.70
15844;DHT22;50807;52.436;13.346;2023-07-13T02:27:12;22.50;68.80
15844;DHT22;50807;52.436;13.346;2023-07-13T02:27:43;22.50;68.80
15844;DHT22;50807;52.436;13.346;2023-07-13T02:28:15;22.50;68.90
15844;DHT22;50807;52.436;13.346;2023-07-13T02:28:46;22.50;68.90
15844;DHT22;50807;52.436;13.346;2023-07-13T02:29:16;22.50;68.90
15844;DHT22;50807;52.436;13.346;2023-07-13T02:29:47;22.50;69.70
15844;DHT22;50807;52.436;13.346;2023-07-13T02:30:21;22.50;69.10
15844;DHT22;50807;52.436;13.346;2023-07-13T02:30:55;22.50;69.10
15844;DHT22;50807;52.436;13.346;2023-07-13T02:31:25;22.50;69.20
15844;DHT22;50807;52.436;13.346;2023-07-13T02:31:57;22.50;69.20
15844;DHT22;50807;52.436;13.346;2023-07-13T02:32:28;22.50;69.30
15844;DHT22;50807;52.436;13.346;2023-07-13T02:32:59;22.50;69.40
15844;DHT22;50807;52.436;13.346;2023-07-13T02:33:29;22.50;69.50
15844;DHT22;50807;52.436;13.346;2023-07-13T02:34:01;22.40;69.50
15844;DHT22;50807;52.436;13.346;2023-07-13T02:34:33;22.40;69.60
15844;DHT22;50807;52.436;13.346;2023-07-13T02:35:05;22.40;69.80
15844;DHT22;50807;52.436;13.346;2023-07-13T02:35:37;22.40;69.80
15844;DHT22;50807;52.436;13.346;2023-07-13T02:36:07;22.40;69.80
15844;DHT22;50807;52.436;13.346;2023-07-13T02:36:40;22.40;69.90
15844;DHT22;50807;52.436;13.346;2023-07-13T02:37:11;22.40;70.00
15844;DHT22;50807;52.436;13.346;2023-07-13T02:37:43;22.40;70.00
15844;DHT22;50807;52.436;13.346;2023-07-13T02:38:13;22.40;70.00
15844;DHT22;50807;52.436;13.346;2023-07-13T02:38:44;22.40;70.10
15844;DHT22;50807;52.436;13.346;2023-07-13T02:39:16;22.40;70.10
15844;DHT22;50807;52.436;13.346;2023-07-13T02:39:47;22.40;70.30
15844;DHT22;50807;52.436;13.346;2023-07-13T02:40:18;22.30;70.30
15844;DHT22;50807;52.436;13.346;2023-07-13T02:40:49;22.40;70.50
15844;DHT22;50807;52.436;13.346;2023-07-13T02:41:21;22.30;70.40
15844;DHT22;50807;52.436;13.346;2023-07-13T02:41:53;22.30;70.40
15844;DHT22;50807;52.436;13.346;2023-07-13T02:42:24;22.30;70.50
15844;DHT22;50807;52.436;13.346;2023-07-13T02:42:54;22.30;70.50
15844;DHT22;50807;52.436;13.346;2023-07-13T02:43:26;22.30;70.70
15844;DHT22;50807;52.436;13.346;2023-07-13T02:43:58;22.30;71.00
15844;DHT22;50807;52.436;13.346;2023-07-13T02:44:33;22.30;70.90
15844;DHT22;50807;52.436;13.346;2023-07-13T02:45:05;22.30;70.80
15844;DHT22;50807;52.436;13.346;2023-07-13T02:45:37;22.30;71.00
15844;DHT22;50807;52.436;13.346;2023-07-13T02:46:09;22.30;71.70
15844;DHT22;50807;52.436;13.346;2023-07-13T02:46:40;22.30;71.00
15844;DHT22;50807;52.436;13.346;2023-07-13T02:47:11;22.30;71.10
15844;DHT22;50807;52.436;13.346;2023-07-13T02:47:43;22.20;71.10
15844;DHT22;50807;52.436;13.346;2023-07-13T02:48:14;22.20;71.20
15844;DHT22;50807;52.436;13.346;2023-07-13T02:48:45;22.20;71.30
15844;DHT22;50807;52.436;13.346;2023-07-13T02:49:16;22.20;71.40
15844;DHT22;50807;52.436;13.346;2023-07-13T02:49:47;22.20;71.40
15844;DHT22;50807;52.436;13.346;2023-07-13T02:50:18;22.20;71.50
15844;DHT22;50807;52.436;13.346;2023-07-13T02:50:49;22.20;71.60
15844;DHT22;50807;52.436;13.346;2023-07-13T02:51:21;22.20;71.70
15844;DHT22;50807;52.436;13.346;2023-07-13T02:51:53;22.20;71.70
15844;DHT22;50807;52.436;13.346;2023-07-13T02:52:24;22.20;71.80
15844;DHT22;50807;52.436;13.346;2023-07-13T02:52:54;22.20;71.80
15844;DHT22;50807;52.436;13.346;2023-07-13T02:53:26;22.20;71.90
15844;DHT22;50807;52.436;13.346;2023-07-13T02:53:57;22.20;71.90
15844;DHT22;50807;52.436;13.346;2023-07-13T02:54:28;22.20;72.00
15844;DHT22;50807;52.436;13.346;2023-07-13T02:55:00;22.10;72.00
15844;DHT22;50807;52.436;13.346;2023-07-13T02:55:31;22.10;72.00
15844;DHT22;50807;52.436;13.346;2023-07-13T02:56:01;22.10;72.10
15844;DHT22;50807;52.436;13.346;2023-07-13T02:56:32;22.10;72.10
15844;DHT22;50807;52.436;13.346;2023-07-13T02:57:04;22.10;72.20
15844;DHT22;50807;52.436;13.346;2023-07-13T02:57:36;22.10;72.30
15844;DHT22;50807;52.436;13.346;2023-07-13T02:58:06;22.10;73.10
15844;DHT22;50807;52.436;13.346;2023-07-13T02:58:37;22.10;72.40
15844;DHT22;50807;52.436;13.346;2023-07-13T02:59:09;22.10;72.50
15844;DHT22;50807;52.436;13.346;2023-07-13T02:59:41;22.10;72.50
15844;DHT22;50807;52.436;13.346;2023-07-13T03:00:12;22.10;72.60
15844;DHT22;50807;52.436;13.346;2023-07-13T03:00:44;22.10;72.60
15844;DHT22;50807;52.436;13.346;2023-07-13T03:01:16;22.10;72.70
15844;DHT22;50807;52.436;13.346;2023-07-13T03:01:49;22.10;72.80
15844;DHT22;50807;52.436;13.346;2023-07-13T03:02:20;22.10;72.80
15844;DHT22;50807;52.436;13.346;2023-07-13T03:02:50;22.10;72.90
15844;DHT22;50807;52.436;13.346;2023-07-13T03:03:23;22.10;73.00
15844;DHT22;50807;52.436;13.346;2023-07-13T03:03:54;22.10;73.00
15844;DHT22;50807;52.436;13.346;2023-07-13T03:04:25;22.10;73.10
15844;DHT22;50807;52.436;13.346;2023-07-13T03:04:55;22.10;73.20
15844;DHT22;50807;52.436;13.346;2023-07-13T03:05:27;22.00;73.20
15844;DHT22;50807;52.436;13.346;2023-07-13T03:05:59;22.10;73.30
15844;DHT22;50807;52.436;13.346;2023-07-13T03:06:32;22.00;73.30
15844;DHT22;50807;52.436;13.346;2023-07-13T03:07:05;22.00;73.30
15844;DHT22;50807;52.436;13.346;2023-07-13T03:07:37;22.10;73.40
15844;DHT22;50807;52.436;13.346;2023-07-13T03:08:07;22.10;73.40
15844;DHT22;50807;52.436;13.346;2023-07-13T03:08:38;22.10;73.50
15844;DHT22;50807;52.436;13.346;2023-07-13T03:09:09;22.10;73.50
15844;DHT22;50807;52.436;13.346;2023-07-13T03:09:43;22.10;72.90
15844;DHT22;50807;52.436;13.346;2023-07-13T03:10:13;22.10;73.60
15844;DHT22;50807;52.436;13.346;2023-07-13T03:10:44;22.10;73.70
15844;DHT22;50807;52.436;13.346;2023-07-13T03:11:17;22.00;73.60
15844;DHT22;50807;52.436;13.346;2023-07-13T03:11:52;22.00;73.70
15844;DHT22;50807;52.436;13.346;2023-07-13T03:12:24;22.00;73.80
15844;DHT22;50807;52.436;13.346;2023-07-13T03:12:55;22.00;73.70
15844;DHT22;50807;52.436;13.346;2023-07-13T03:13:27;22.10;73.80
15844;DHT22;50807;52.436;13.346;2023-07-13T03:13:58;22.00;73.80
15844;DHT22;50807;52.436;13.346;2023-07-13T03:14:28;22.00;73.90
15844;DHT22;50807;52.436;13.346;2023-07-13T03:15:00;22.10;73.90
15844;DHT22;50807;52.436;13.346;2023-07-13T03:15:31;22.00;73.90
15844;DHT22;50807;52.436;13.346;2023-07-13T03:16:03;22.00;73.90
15844;DHT22;50807;52.436;13.346;2023-07-13T03:16:35;22.00;74.00
15844;DHT22;50807;52.436;13.346;2023-07-13T03:17:06;22.00;74.00
15844;DHT22;50807;52.436;13.346;2023-07-13T03:17:37;22.00;74.00
15844;DHT22;50807;52.436;13.346;2023-07-13T03:18:09;22.00;74.10
15844;DHT22;50807;52.436;13.346;2023-07-13T03:18:39;22.00;74.10
15844;DHT22;50807;52.436;13.346;2023-07-13T03:19:10;22.00;74.10